createdAt,value
2022-08-16T00:02:12.999Z,100.00
2022-08-16T00:04:59.641Z,100.00
2022-08-16T00:07:45.448Z,100.00
2022-08-16T00:10:34.529Z,100.00
2022-08-16T00:13:22.145Z,100.00
2022-08-16T00:17:01.026Z,100.00
2022-08-16T00:19:00.722Z,100.00
2022-08-16T00:21:53.164Z,100.00
2022-08-16T00:24:37.273Z,100.00
2022-08-16T00:27:24.953Z,100.00
2022-08-16T00:30:25.031Z,100.00
2022-08-16T00:33:04.192Z,100.00
2022-08-16T00:35:52.369Z,100.00
2022-08-16T00:38:43.739Z,100.00
2022-08-16T00:41:31.049Z,100.00
2022-08-16T00:44:22.120Z,100.00
2022-08-16T00:47:15.342Z,100.00
2022-08-16T00:50:02.816Z,100.00
2022-08-16T00:52:53.577Z,100.00
2022-08-16T00:55:42.672Z,100.00
2022-08-16T00:58:32.275Z,100.00
2022-08-16T01:01:20.836Z,100.00
2022-08-16T01:04:29.272Z,100.00
2022-08-16T01:07:01.172Z,100.00
2022-08-16T01:09:49.120Z,100.00
2022-08-16T01:12:37.361Z,100.00
2022-08-16T01:15:26.824Z,100.00
2022-08-16T01:18:40.784Z,100.00
2022-08-16T01:21:14.049Z,100.00
2022-08-16T01:24:53.378Z,100.00
2022-08-16T01:27:20.775Z,100.00
2022-08-16T01:30:19.900Z,100.00
2022-08-16T01:33:14.424Z,100.00
2022-08-16T01:36:09.355Z,100.00
2022-08-16T01:38:57.344Z,100.00
2022-08-16T01:41:46.227Z,100.00
2022-08-16T01:44:37.668Z,100.00
2022-08-16T01:47:22.543Z,100.00
2022-08-16T01:50:42.220Z,100.00
2022-08-16T01:52:59.857Z,100.00
2022-08-16T01:55:53.951Z,100.00
2022-08-16T01:58:37.671Z,100.00
2022-08-16T02:01:28.399Z,100.00
2022-08-16T02:04:48.267Z,100.00
2022-08-16T02:07:07.671Z,100.00
2022-08-16T02:09:57.052Z,100.00
2022-08-16T02:12:51.171Z,100.00
2022-08-16T02:15:42.650Z,100.00
2022-08-16T02:18:26.023Z,100.00
2022-08-16T02:21:15.921Z,100.00
2022-08-16T02:24:03.071Z,100.00
2022-08-16T02:26:53.056Z,100.00
2022-08-16T02:29:42.991Z,100.00
2022-08-16T02:32:49.106Z,100.00
2022-08-16T02:35:23.178Z,100.00
2022-08-16T02:38:09.191Z,100.00
2022-08-16T02:40:57.392Z,100.00
2022-08-16T02:43:47.171Z,100.00
2022-08-16T02:46:36.633Z,100.00
2022-08-16T02:49:32.281Z,100.00
2022-08-16T02:52:24.371Z,100.00
2022-08-16T02:55:04.611Z,100.00
2022-08-16T02:57:53.875Z,100.00
2022-08-16T03:00:41.103Z,100.00
2022-08-16T03:04:40.583Z,100.00
2022-08-16T03:06:41.300Z,100.00
2022-08-16T03:09:13.865Z,100.00
2022-08-16T03:12:01.004Z,100.00
2022-08-16T03:14:49.159Z,100.00
2022-08-16T03:17:36.679Z,100.00
2022-08-16T03:20:32.573Z,100.00
2022-08-16T03:23:14.991Z,100.00
2022-08-16T03:26:04.472Z,100.00
2022-08-16T03:28:51.832Z,100.00
2022-08-16T03:31:40.655Z,100.00
2022-08-16T03:34:30.224Z,100.00
2022-08-16T03:37:17.631Z,100.00
2022-08-16T03:40:06.965Z,100.00
2022-08-16T03:43:18.707Z,100.00
2022-08-16T03:45:44.384Z,100.00
2022-08-16T03:48:39.731Z,100.00
2022-08-16T03:51:25.348Z,100.00
2022-08-16T03:54:13.346Z,100.00
2022-08-16T03:57:00.376Z,100.00
2022-08-16T03:59:47.847Z,100.00
2022-08-16T04:02:37.032Z,100.00
2022-08-16T04:05:26.584Z,100.00
2022-08-16T04:08:23.219Z,100.00
2022-08-16T04:11:05.106Z,100.00
2022-08-16T04:14:01.060Z,100.00
2022-08-16T04:16:42.735Z,100.00
2022-08-16T04:19:31.789Z,100.00
2022-08-16T04:22:19.912Z,100.00
2022-08-16T04:25:09.241Z,100.00
2022-08-16T04:27:58.526Z,100.00
2022-08-16T04:30:47.863Z,100.00
2022-08-16T04:33:36.600Z,100.00
2022-08-16T04:36:24.513Z,100.00
2022-08-16T04:39:12.336Z,100.00
2022-08-16T04:42:01.463Z,100.00
2022-08-16T04:44:53.508Z,100.00
2022-08-16T04:47:40.183Z,100.00
2022-08-16T04:50:30.459Z,100.00
2022-08-16T04:53:19.226Z,100.00
2022-08-16T04:56:11.519Z,100.00
2022-08-16T04:58:57.692Z,100.00
2022-08-16T05:01:58.004Z,100.00
2022-08-16T05:04:34.696Z,100.00
2022-08-16T05:07:21.681Z,100.00
2022-08-16T05:10:19.596Z,100.00
2022-08-16T05:13:01.895Z,100.00
2022-08-16T05:15:50.248Z,99.85
2022-08-16T05:18:39.784Z,99.45
2022-08-16T05:21:35.708Z,99.24
2022-08-16T05:24:22.074Z,99.15
2022-08-16T05:27:11.503Z,98.69
2022-08-16T05:30:34.085Z,98.00
2022-08-16T05:32:49.462Z,97.26
2022-08-16T05:35:37.072Z,96.80
2022-08-16T05:38:32.922Z,96.70
2022-08-16T05:41:18.757Z,96.81
2022-08-16T05:44:06.152Z,96.43
2022-08-16T05:46:57.544Z,96.34
2022-08-16T05:49:50.675Z,96.01
2022-08-16T05:52:36.536Z,95.43
2022-08-16T05:55:23.772Z,94.43
2022-08-16T05:58:31.419Z,93.40
2022-08-16T06:01:00.697Z,92.01
2022-08-16T06:03:49.496Z,90.76
2022-08-16T06:06:37.073Z,89.13
2022-08-16T06:09:42.591Z,86.44
2022-08-16T06:12:27.177Z,86.12
2022-08-16T06:15:10.784Z,85.22
2022-08-16T06:17:59.352Z,85.40
2022-08-16T06:20:55.668Z,84.55
2022-08-16T06:23:37.281Z,83.89
2022-08-16T06:26:37.002Z,82.91
2022-08-16T06:29:14.390Z,83.07
2022-08-16T06:32:05.657Z,82.67
2022-08-16T06:35:02.038Z,82.25
2022-08-16T06:37:51.429Z,82.32
2022-08-16T06:40:49.161Z,81.77
2022-08-16T06:46:32.057Z,81.02
2022-08-16T06:49:17.761Z,82.01
2022-08-16T06:52:05.274Z,82.28
2022-08-16T06:54:55.816Z,82.26
2022-08-16T06:57:43.992Z,82.13
2022-08-16T07:00:32.040Z,81.94
2022-08-16T07:03:28.287Z,80.85
2022-08-16T07:06:09.448Z,79.94
2022-08-16T07:08:58.376Z,79.81
2022-08-16T07:11:47.678Z,79.29
2022-08-16T07:14:35.782Z,78.79
2022-08-16T07:17:24.274Z,78.30
2022-08-16T07:20:35.236Z,77.72
2022-08-16T07:23:02.684Z,76.91
2022-08-16T07:25:51.793Z,76.57
2022-08-16T07:28:39.817Z,76.08
2022-08-16T07:31:37.775Z,75.77
2022-08-16T07:34:17.135Z,75.15
2022-08-16T07:37:07.929Z,76.06
2022-08-16T07:39:57.245Z,75.60
2022-08-16T07:42:45.544Z,74.90
2022-08-16T07:45:33.777Z,73.93
2022-08-16T07:48:22.277Z,72.44
2022-08-16T07:51:11.641Z,71.35
2022-08-16T07:54:02.598Z,69.46
2022-08-16T07:56:48.846Z,69.47
2022-08-16T07:59:42.889Z,68.23
2022-08-16T08:02:27.392Z,66.49
2022-08-16T08:05:15.176Z,65.82
2022-08-16T08:08:11.460Z,64.86
2022-08-16T08:10:52.480Z,63.24
2022-08-16T08:13:42.251Z,61.03
2022-08-16T08:16:30.034Z,59.35
2022-08-16T08:19:18.607Z,59.63
2022-08-16T08:22:10.032Z,59.35
2022-08-16T08:24:59.705Z,58.89
2022-08-16T08:27:49.058Z,58.47
2022-08-16T08:30:51.594Z,58.23
2022-08-16T08:33:27.233Z,57.91
2022-08-16T08:36:21.950Z,57.54
2022-08-16T08:39:13.207Z,58.05
2022-08-16T08:41:57.321Z,57.76
2022-08-16T08:44:45.168Z,57.48
2022-08-16T08:47:34.192Z,56.10
2022-08-16T08:50:31.652Z,56.32
2022-08-16T08:53:11.823Z,53.96
2022-08-16T08:56:01.401Z,54.28
2022-08-16T08:58:53.877Z,54.17
2022-08-16T09:01:43.146Z,53.74
2022-08-16T09:04:29.596Z,53.18
2022-08-16T09:07:18.024Z,52.70
2022-08-16T09:10:20.318Z,54.71
2022-08-16T09:12:57.408Z,54.87
2022-08-16T09:15:44.977Z,54.87
2022-08-16T09:18:35.978Z,54.69
2022-08-16T09:21:31.597Z,54.13
2022-08-16T09:24:12.633Z,53.21
2022-08-16T09:27:01.532Z,52.60
2022-08-16T09:29:49.043Z,52.25
2022-08-16T09:32:39.513Z,52.23
2022-08-16T09:35:30.591Z,52.35
2022-08-16T09:38:31.227Z,52.13
2022-08-16T09:41:14.903Z,51.84
2022-08-16T09:44:02.269Z,52.30
2022-08-16T09:46:49.966Z,52.63
2022-08-16T09:49:41.169Z,53.17
2022-08-16T09:52:27.175Z,53.86
2022-08-16T09:55:15.257Z,54.12
2022-08-16T09:58:03.382Z,54.09
2022-08-16T10:00:53.226Z,54.01
2022-08-16T10:04:02.685Z,52.75
2022-08-16T10:06:33.989Z,52.14
2022-08-16T10:09:20.855Z,51.49
2022-08-16T10:12:26.983Z,51.11
2022-08-16T10:15:18.673Z,51.35
2022-08-16T10:19:00.121Z,50.07
2022-08-16T10:20:59.673Z,49.20
2022-08-16T10:23:48.897Z,47.66
2022-08-16T10:27:17.612Z,46.92
2022-08-16T10:29:25.842Z,46.64
2022-08-16T10:32:14.622Z,46.72
2022-08-16T10:35:03.924Z,46.48
2022-08-16T10:37:52.127Z,46.69
2022-08-16T10:40:40.200Z,46.68
2022-08-16T10:43:31.038Z,45.32
2022-08-16T10:46:39.816Z,44.32
2022-08-16T10:49:07.528Z,44.11
2022-08-16T10:52:01.404Z,45.77
2022-08-16T10:55:43.720Z,45.42
2022-08-16T10:57:34.968Z,46.21
2022-08-16T11:00:23.053Z,47.24
2022-08-16T11:06:00.864Z,47.74
2022-08-16T11:09:20.862Z,48.12
2022-08-16T11:12:13.739Z,47.32
2022-08-16T11:14:28.098Z,46.74
2022-08-16T11:22:57.805Z,43.58
2022-08-16T11:38:47.873Z,43.59
2022-08-16T11:41:49.253Z,42.19
2022-08-16T11:44:56.316Z,41.30
2022-08-16T11:48:18.994Z,41.92
2022-08-16T11:51:06.880Z,42.11
2022-08-16T11:53:54.532Z,42.83
2022-08-16T11:56:53.115Z,44.17
2022-08-16T11:59:39.761Z,44.73
2022-08-16T12:02:32.583Z,44.00
2022-08-16T12:05:17.529Z,43.75
2022-08-16T12:08:06.759Z,41.46
2022-08-16T12:10:55.416Z,40.48
2022-08-16T12:13:46.891Z,39.78
2022-08-16T12:16:36.922Z,40.22
2022-08-16T12:19:33.769Z,41.39
2022-08-16T12:22:18.702Z,43.18
2022-08-16T12:25:09.065Z,45.71
2022-08-16T12:27:57.148Z,47.96
2022-08-16T12:30:46.952Z,48.60
2022-08-16T12:33:44.692Z,49.47
2022-08-16T12:36:29.959Z,50.54
2022-08-16T12:39:17.832Z,51.83
2022-08-16T12:42:08.545Z,52.31
2022-08-16T12:44:56.287Z,52.58
2022-08-16T12:48:29.479Z,52.98
2022-08-16T12:50:50.905Z,54.73
2022-08-16T12:53:39.988Z,54.73
2022-08-16T12:56:31.517Z,55.83
2022-08-16T12:59:20.943Z,57.17
2022-08-16T13:02:12.534Z,58.12
2022-08-16T13:04:57.513Z,60.08
2022-08-16T13:07:51.649Z,61.76
2022-08-16T13:10:37.654Z,63.09
2022-08-16T13:13:26.495Z,64.22
2022-08-16T13:16:20.829Z,64.54
2022-08-16T13:19:05.552Z,64.88
2022-08-16T13:21:54.832Z,65.46
2022-08-16T13:24:43.056Z,65.43
2022-08-16T13:28:10.804Z,66.14
2022-08-16T13:30:36.553Z,66.39
2022-08-16T13:33:15.796Z,66.08
2022-08-16T13:36:02.464Z,65.97
2022-08-16T13:38:49.960Z,65.76
2022-08-16T13:41:39.658Z,65.07
2022-08-16T13:44:30.915Z,64.56
2022-08-16T13:47:16.679Z,63.80
2022-08-16T13:50:05.538Z,63.25
2022-08-16T13:52:55.177Z,62.97
2022-08-16T13:55:44.378Z,62.58
2022-08-16T13:58:37.543Z,62.14
2022-08-16T14:01:22.335Z,60.99
2022-08-16T14:04:09.856Z,59.76
2022-08-16T14:06:59.975Z,58.30
2022-08-16T14:09:47.912Z,56.72
2022-08-16T14:12:37.864Z,56.22
2022-08-16T14:15:25.584Z,56.04
2022-08-16T14:18:17.168Z,56.04
2022-08-16T14:21:02.922Z,55.26
2022-08-16T14:23:52.064Z,52.71
2022-08-16T14:26:40.024Z,50.89
2022-08-16T14:29:28.421Z,49.38
2022-08-16T14:32:29.093Z,47.73
2022-08-16T14:35:08.350Z,46.84
2022-08-16T14:37:57.224Z,45.91
2022-08-16T14:40:47.117Z,44.96
2022-08-16T14:43:34.328Z,44.46
2022-08-16T14:46:22.261Z,44.12
2022-08-16T14:49:09.977Z,44.01
2022-08-16T14:52:03.561Z,43.71
2022-08-16T14:54:53.546Z,44.03
2022-08-16T14:57:42.175Z,44.70
2022-08-16T15:00:33.945Z,45.07
2022-08-16T15:03:23.363Z,45.47
2022-08-16T15:06:13.224Z,46.42
2022-08-16T15:09:00.761Z,47.32
2022-08-16T15:11:48.177Z,48.38
2022-08-16T15:14:38.575Z,48.92
2022-08-16T15:17:34.033Z,49.67
2022-08-16T15:20:19.543Z,50.27
2022-08-16T15:23:08.769Z,50.36
2022-08-16T15:26:02.829Z,50.86
2022-08-16T15:28:45.544Z,51.90
2022-08-16T15:31:33.175Z,52.77
2022-08-16T15:34:26.033Z,53.76
2022-08-16T15:37:11.968Z,55.04
2022-08-16T15:40:00.295Z,56.83
2022-08-16T15:43:03.070Z,57.37
2022-08-16T15:46:04.072Z,58.09
2022-08-16T15:48:54.521Z,58.96
2022-08-16T15:51:45.487Z,59.73
2022-08-16T15:57:49.326Z,61.02
2022-08-16T16:00:38.850Z,61.77
2022-08-16T16:03:28.529Z,62.33
2022-08-16T16:06:19.159Z,63.02
2022-08-16T16:09:08.095Z,63.44
2022-08-16T16:11:58.687Z,63.35
2022-08-16T16:14:47.769Z,63.52
2022-08-16T16:17:36.201Z,63.80
2022-08-16T16:20:27.105Z,64.68
2022-08-16T16:23:17.461Z,65.70
2022-08-16T16:26:06.560Z,66.58
2022-08-16T16:29:07.786Z,66.26
2022-08-16T16:31:59.769Z,66.03
2022-08-16T16:34:36.087Z,66.04
2022-08-16T16:37:23.463Z,66.59
2022-08-16T16:40:13.162Z,66.86
2022-08-16T16:43:02.902Z,66.71
2022-08-16T16:45:50.986Z,66.83
2022-08-16T16:48:39.949Z,67.61
2022-08-16T16:51:28.134Z,69.03
2022-08-16T16:54:27.927Z,70.40
2022-08-16T16:57:06.263Z,71.78
2022-08-16T16:59:55.793Z,72.73
2022-08-16T17:02:53.903Z,73.44
2022-08-16T17:05:32.594Z,73.53
2022-08-16T17:08:22.585Z,73.25
2022-08-16T17:11:12.815Z,72.95
2022-08-16T17:14:00.583Z,72.44
2022-08-16T17:16:48.096Z,71.97
2022-08-16T17:19:40.333Z,71.38
2022-08-16T17:22:32.798Z,71.28
2022-08-16T17:25:15.497Z,71.96
2022-08-16T17:28:58.795Z,72.43
2022-08-16T17:30:52.888Z,73.06
2022-08-16T17:33:54.722Z,73.80
2022-08-16T17:36:36.506Z,75.19
2022-08-16T17:39:20.664Z,75.69
2022-08-16T17:42:16.000Z,75.60
2022-08-16T17:45:03.994Z,75.75
2022-08-16T17:47:52.369Z,76.47
2022-08-16T17:50:40.960Z,76.96
2022-08-16T17:53:28.880Z,78.45
2022-08-16T17:56:17.615Z,79.07
2022-08-16T17:59:05.696Z,80.36
2022-08-16T18:01:53.741Z,81.92
2022-08-16T18:04:49.395Z,82.67
2022-08-16T18:07:31.575Z,82.89
2022-08-16T18:10:31.261Z,84.29
2022-08-16T18:13:11.673Z,85.59
2022-08-16T18:15:59.697Z,86.34
2022-08-16T18:18:47.456Z,87.20
2022-08-16T18:21:52.898Z,87.99
2022-08-16T18:24:40.793Z,88.67
2022-08-16T18:27:29.954Z,89.40
2022-08-16T18:30:18.043Z,90.15
2022-08-16T18:33:05.913Z,90.88
2022-08-16T18:35:57.539Z,91.39
2022-08-16T18:38:42.952Z,91.73
2022-08-16T18:41:30.704Z,92.14
2022-08-16T18:44:25.747Z,92.39
2022-08-16T18:47:08.394Z,92.80
2022-08-16T18:49:55.913Z,93.30
2022-08-16T18:52:52.610Z,94.16
2022-08-16T18:55:45.506Z,94.75
2022-08-16T18:58:36.393Z,95.38
2022-08-16T19:01:25.494Z,95.86
2022-08-16T19:04:47.827Z,96.08
2022-08-16T19:07:03.692Z,95.56
2022-08-16T19:09:51.153Z,95.54
2022-08-16T19:12:42.198Z,95.97
2022-08-16T19:15:30.188Z,96.28
2022-08-16T19:18:18.947Z,96.01
2022-08-16T19:21:09.425Z,95.79
2022-08-16T19:23:56.697Z,95.83
2022-08-16T19:26:45.366Z,95.54
2022-08-16T19:29:33.307Z,95.07
2022-08-16T19:32:27.635Z,94.92
2022-08-16T19:35:17.841Z,95.18
2022-08-16T19:38:07.147Z,95.90
2022-08-16T19:40:54.633Z,97.10
2022-08-16T19:43:42.198Z,97.95
2022-08-16T19:46:29.881Z,98.52
2022-08-16T19:49:20.803Z,98.70
2022-08-16T19:52:18.426Z,98.68
2022-08-16T19:55:08.307Z,98.77
2022-08-16T19:57:55.928Z,98.98
2022-08-16T20:00:44.064Z,99.02
2022-08-16T20:03:35.697Z,98.84
2022-08-16T20:06:37.943Z,98.82
2022-08-16T20:09:31.544Z,98.92
2022-08-16T20:12:31.529Z,98.54
2022-08-16T20:15:24.809Z,98.51
2022-08-16T20:18:21.258Z,98.59
2022-08-16T20:21:01.969Z,98.64
2022-08-16T20:23:50.987Z,98.69
2022-08-16T20:26:41.338Z,98.56
2022-08-16T20:29:30.546Z,98.51
2022-08-16T20:32:25.290Z,99.29
2022-08-16T20:35:12.338Z,100.00
2022-08-16T20:38:01.486Z,100.00
2022-08-16T20:40:49.100Z,100.00
2022-08-16T20:43:36.953Z,100.00
2022-08-16T20:46:24.809Z,100.00
2022-08-16T20:49:11.964Z,100.00
2022-08-16T20:52:00.003Z,100.00
2022-08-16T20:54:49.441Z,100.00
2022-08-16T20:57:38.201Z,100.00
2022-08-16T21:00:25.825Z,100.00
2022-08-16T21:03:14.731Z,100.00
2022-08-16T21:06:02.386Z,100.00
2022-08-16T21:08:53.843Z,100.00
2022-08-16T21:11:39.201Z,100.00
2022-08-16T21:14:27.017Z,100.00
2022-08-16T21:17:16.220Z,100.00
2022-08-16T21:20:03.838Z,100.00
2022-08-16T21:23:02.297Z,100.00
2022-08-16T21:25:58.881Z,100.00
2022-08-16T21:28:43.201Z,100.00
2022-08-16T21:31:28.297Z,100.00
2022-08-16T21:34:15.715Z,100.00
2022-08-16T21:37:03.704Z,100.00
2022-08-16T21:39:51.584Z,100.00
2022-08-16T21:42:45.196Z,100.00
2022-08-16T21:45:32.394Z,100.00
2022-08-16T21:48:19.873Z,100.00
2022-08-16T21:51:11.481Z,100.00
2022-08-16T21:53:58.913Z,100.00
2022-08-16T21:56:46.273Z,100.00
2022-08-16T21:59:33.977Z,100.00
2022-08-16T22:02:22.954Z,100.00
2022-08-16T22:05:10.673Z,100.00
2022-08-16T22:08:01.305Z,100.00
2022-08-16T22:11:04.841Z,100.00
2022-08-16T22:13:36.825Z,100.00
2022-08-16T22:16:25.894Z,100.00
2022-08-16T22:19:13.825Z,100.00
2022-08-16T22:22:01.977Z,100.00
2022-08-16T22:24:49.627Z,100.00
2022-08-16T22:27:37.426Z,100.00
2022-08-16T22:30:25.145Z,100.00
2022-08-16T22:33:15.626Z,100.00
2022-08-16T22:36:05.018Z,100.00
2022-08-16T22:38:56.673Z,100.00
2022-08-16T22:41:43.417Z,100.00
2022-08-16T22:44:30.706Z,100.00
2022-08-16T22:47:17.969Z,100.00
2022-08-16T22:50:06.010Z,100.00
2022-08-16T22:52:56.978Z,100.00
2022-08-16T22:55:43.841Z,100.00
2022-08-16T22:58:37.117Z,100.00
2022-08-16T23:01:23.116Z,100.00
2022-08-16T23:04:10.328Z,100.00
2022-08-16T23:06:57.819Z,100.00
2022-08-16T23:09:45.170Z,100.00
2022-08-16T23:12:32.834Z,100.00
2022-08-16T23:15:23.116Z,100.00
2022-08-16T23:18:11.792Z,100.00
2022-08-16T23:21:01.403Z,100.00
2022-08-16T23:23:49.193Z,100.00
2022-08-16T23:26:45.743Z,100.00
2022-08-16T23:29:26.737Z,100.00
2022-08-16T23:32:15.106Z,100.00
2022-08-16T23:35:06.201Z,100.00
2022-08-16T23:37:55.170Z,100.00
2022-08-16T23:40:44.249Z,100.00
2022-08-16T23:43:33.721Z,100.00
2022-08-16T23:46:21.281Z,100.00
2022-08-16T23:49:56.239Z,100.00
2022-08-16T23:51:59.409Z,100.00
2022-08-16T23:54:46.897Z,100.00
2022-08-16T23:57:34.250Z,100.00
